Time;durP1;ratioP1;P1;durP2;ratioP2;P2;SDS_P1;SDS_P2;PMS_P1;PMS_P2;Temp;Humidity;BMP_temperature;BMP_pressure;BME280_temperature;BME280_humidity;BME280_pressure;Samples;Min_cycle;Max_cycle;Signal;HPM_P1;HPM_P2
2023/08/07 00:02:09;;;;;;;21.67;13.90;;;;;;;;;;5071007;28;20037;-62
2023/08/07 00:04:36;;;;;;;33.67;14.93;;;;;;;;;;5070382;28;20415;-62
2023/08/07 00:07:02;;;;;;;22.17;12.17;;;;;;;;;;5070655;28;20044;-62
2023/08/07 00:09:28;;;;;;;27.13;13.47;;;;;;;;;;5071396;28;20053;-62
2023/08/07 00:11:54;;;;;;;28.30;13.80;;;;;;;;;;5070670;28;20392;-62
2023/08/07 00:14:20;;;;;;;32.43;14.77;;;;;;;;;;5071461;28;20136;-62
2023/08/07 00:16:46;;;;;;;17.70;11.60;;;;;;;;;;5071707;28;20595;-62
2023/08/07 00:19:12;;;;;;;23.27;12.07;;;;;;;;;;5070426;28;20055;-62
2023/08/07 00:21:38;;;;;;;21.93;11.73;;;;;;;;;;5071241;28;20047;-62
2023/08/07 00:24:05;;;;;;;16.53;10.73;;;;;;;;;;5069634;28;20040;-62
2023/08/07 00:26:32;;;;;;;23.03;12.10;;;;;;;;;;5071261;28;20574;-62
2023/08/07 00:28:58;;;;;;;27.13;13.17;;;;;;;;;;5070711;28;20560;-62
2023/08/07 00:31:24;;;;;;;27.93;13.67;;;;;;;;;;5071033;28;20056;-61
2023/08/07 00:33:53;;;;;;;17.30;9.27;;;;;;;;;;5061215;28;20064;-62
2023/08/07 00:36:19;;;;;;;15.20;9.00;;;;;;;;;;5057067;28;20052;-62
2023/08/07 00:38:45;;;;;;;21.33;10.03;;;;;;;;;;5070896;28;20047;-62
2023/08/07 00:41:11;;;;;;;15.33;9.07;;;;;;;;;;5070605;28;20048;-62
2023/08/07 00:43:37;;;;;;;14.73;9.07;;;;;;;;;;5053733;28;20518;-62
2023/08/07 00:46:03;;;;;;;23.57;11.37;;;;;;;;;;5050855;28;20049;-62
2023/08/07 00:48:29;;;;;;;15.07;8.97;;;;;;;;;;5050171;28;20478;-62
2023/08/07 00:50:56;;;;;;;15.53;8.90;;;;;;;;;;5050588;28;20044;-62
2023/08/07 00:53:22;;;;;;;20.23;10.43;;;;;;;;;;5050856;28;20055;-62
2023/08/07 00:55:48;;;;;;;29.87;13.23;;;;;;;;;;5050362;28;20049;-61
2023/08/07 00:58:14;;;;;;;22.73;10.07;;;;;;;;;;5050981;28;20061;-61
2023/08/07 01:00:42;;;;;;;28.83;10.70;;;;;;;;;;5050829;28;20049;-61
2023/08/07 01:03:08;;;;;;;25.17;8.67;;;;;;;;;;5050872;28;20123;-62
2023/08/07 01:05:34;;;;;;;20.00;10.87;;;;;;;;;;5050286;28;20088;-62
2023/08/07 01:08:01;;;;;;;21.33;9.80;;;;;;;;;;5050071;28;20566;-62
2023/08/07 01:10:36;;;;;;;23.27;9.87;;;;;;;;;;5050354;28;20049;-62
2023/08/07 01:13:09;;;;;;;28.60;10.17;;;;;;;;;;5052923;28;20088;-62
2023/08/07 01:15:36;;;;;;;30.63;10.93;;;;;;;;;;5050150;28;20076;-61
2023/08/07 01:18:04;;;;;;;22.97;9.33;;;;;;;;;;5054243;28;20098;-61
2023/08/07 01:20:31;;;;;;;24.70;9.57;;;;;;;;;;5049603;28;20067;-61
2023/08/07 01:22:57;;;;;;;18.33;9.20;;;;;;;;;;5049834;28;20044;-61
2023/08/07 01:25:23;;;;;;;24.50;8.93;;;;;;;;;;5050332;28;20049;-61
2023/08/07 01:28:15;;;;;;;26.63;9.23;;;;;;;;;;5049628;28;20083;-62
2023/08/07 01:30:43;;;;;;;21.27;7.87;;;;;;;;;;5050043;28;20053;-62
2023/08/07 01:33:17;;;;;;;21.33;8.47;;;;;;;;;;5049924;28;20107;-61
2023/08/07 01:35:44;;;;;;;23.27;7.83;;;;;;;;;;5049981;28;20151;-61
2023/08/07 01:38:15;;;;;;;18.50;8.10;;;;;;;;;;5050160;28;20628;-61
2023/08/07 01:40:41;;;;;;;19.23;8.40;;;;;;;;;;5050041;28;20095;-61
2023/08/07 01:43:08;;;;;;;20.47;7.97;;;;;;;;;;5050227;28;20037;-61
2023/08/07 01:45:34;;;;;;;17.17;7.30;;;;;;;;;;5049824;28;20426;-61
2023/08/07 01:48:00;;;;;;;19.60;7.00;;;;;;;;;;5049296;28;20049;-62
2023/08/07 01:50:26;;;;;;;23.67;7.20;;;;;;;;;;5049267;28;20842;-61
2023/08/07 01:52:52;;;;;;;20.07;6.30;;;;;;;;;;5055969;28;20052;-61
2023/08/07 01:55:19;;;;;;;18.90;7.23;;;;;;;;;;5059840;28;20049;-61
2023/08/07 01:57:45;;;;;;;25.23;7.13;;;;;;;;;;5049155;28;20052;-61
2023/08/07 02:00:11;;;;;;;16.43;5.97;;;;;;;;;;5049202;28;20045;-61
2023/08/07 02:02:38;;;;;;;23.13;5.37;;;;;;;;;;5049610;28;20044;-62
2023/08/07 02:05:04;;;;;;;16.97;5.47;;;;;;;;;;5048885;28;20099;-61
2023/08/07 02:07:30;;;;;;;18.93;7.23;;;;;;;;;;5048910;28;20499;-62
2023/08/07 02:09:56;;;;;;;22.73;7.43;;;;;;;;;;5049435;28;20049;-61
2023/08/07 02:12:22;;;;;;;26.53;7.10;;;;;;;;;;5049491;28;20037;-61
2023/08/07 02:14:48;;;;;;;17.73;6.47;;;;;;;;;;5049172;28;20041;-61
2023/08/07 02:17:14;;;;;;;23.70;6.80;;;;;;;;;;5048723;28;20044;-62
2023/08/07 02:19:40;;;;;;;17.50;5.53;;;;;;;;;;5049588;28;20098;-61
2023/08/07 02:22:06;;;;;;;20.37;6.20;;;;;;;;;;5048680;28;20040;-61
2023/08/07 02:24:32;;;;;;;19.53;5.20;;;;;;;;;;5052286;28;20110;-61
2023/08/07 02:26:58;;;;;;;21.37;6.10;;;;;;;;;;5050752;28;20051;-61
2023/08/07 02:29:24;;;;;;;15.33;6.20;;;;;;;;;;5048859;28;20495;-61
2023/08/07 02:31:50;;;;;;;27.20;6.43;;;;;;;;;;5048933;28;20072;-61
2023/08/07 02:34:16;;;;;;;23.30;5.53;;;;;;;;;;5048889;28;20088;-62
2023/08/07 02:36:42;;;;;;;23.30;4.93;;;;;;;;;;5048324;28;20052;-62
2023/08/07 02:39:08;;;;;;;20.43;4.87;;;;;;;;;;5048108;28;20040;-62
2023/08/07 02:41:34;;;;;;;17.07;4.80;;;;;;;;;;5048693;28;20098;-62
2023/08/07 02:44:00;;;;;;;19.90;4.33;;;;;;;;;;5048468;28;20496;-61
2023/08/07 02:46:26;;;;;;;22.57;4.73;;;;;;;;;;5049077;28;20037;-62
2023/08/07 02:48:53;;;;;;;16.30;4.00;;;;;;;;;;5048001;28;20059;-61
2023/08/07 02:51:19;;;;;;;21.53;4.50;;;;;;;;;;5047942;28;20614;-61
2023/08/07 02:53:45;;;;;;;24.73;4.90;;;;;;;;;;5048882;28;20056;-61
2023/08/07 02:56:11;;;;;;;17.40;3.63;;;;;;;;;;5048306;28;20076;-61
2023/08/07 02:58:37;;;;;;;17.50;4.10;;;;;;;;;;5048064;28;20044;-62
2023/08/07 03:01:05;;;;;;;17.33;4.70;;;;;;;;;;5047869;28;20067;-62
2023/08/07 03:03:31;;;;;;;14.27;3.87;;;;;;;;;;5048019;28;20569;-61
2023/08/07 03:05:57;;;;;;;24.27;4.63;;;;;;;;;;5047495;28;20037;-62
2023/08/07 03:08:23;;;;;;;18.93;4.20;;;;;;;;;;5048502;28;20484;-61
2023/08/07 03:10:52;;;;;;;21.67;4.40;;;;;;;;;;5047787;28;20041;-61
2023/08/07 03:13:18;;;;;;;18.37;4.13;;;;;;;;;;5047913;28;20102;-62
2023/08/07 03:15:44;;;;;;;23.63;4.87;;;;;;;;;;5048273;28;20446;-61
2023/08/07 03:18:10;;;;;;;20.53;4.53;;;;;;;;;;5048562;28;20045;-61
2023/08/07 03:20:39;;;;;;;13.83;4.53;;;;;;;;;;5048157;28;20044;-61
2023/08/07 03:23:05;;;;;;;22.17;5.40;;;;;;;;;;5048436;28;20095;-61
2023/08/07 03:25:31;;;;;;;18.00;4.40;;;;;;;;;;5047525;28;20506;-62
2023/08/07 03:27:57;;;;;;;24.40;4.70;;;;;;;;;;5048349;28;20165;-61
2023/08/07 03:30:23;;;;;;;22.27;4.50;;;;;;;;;;5048007;28;20125;-61
2023/08/07 03:32:49;;;;;;;17.70;4.27;;;;;;;;;;5047545;28;20045;-61
2023/08/07 03:35:16;;;;;;;22.30;4.83;;;;;;;;;;5051027;28;20071;-62
2023/08/07 03:37:41;;;;;;;21.90;4.77;;;;;;;;;;5067856;28;20048;-62
2023/08/07 03:40:08;;;;;;;16.43;4.53;;;;;;;;;;5068228;28;20044;-62
2023/08/07 03:42:34;;;;;;;21.27;5.17;;;;;;;;;;5066694;28;20495;-61
2023/08/07 03:45:00;;;;;;;18.97;4.50;;;;;;;;;;5066780;28;20080;-62
2023/08/07 03:47:26;;;;;;;19.17;4.87;;;;;;;;;;5048147;28;20045;-61
2023/08/07 03:49:52;;;;;;;22.53;4.80;;;;;;;;;;5047956;28;20094;-61
2023/08/07 03:52:18;;;;;;;26.13;5.50;;;;;;;;;;5047681;28;20519;-61
2023/08/07 03:54:45;;;;;;;19.10;4.83;;;;;;;;;;5048148;28;20099;-61
2023/08/07 03:57:11;;;;;;;17.40;4.83;;;;;;;;;;5047614;28;20513;-62
2023/08/07 03:59:37;;;;;;;22.27;5.00;;;;;;;;;;5047498;28;20045;-61
2023/08/07 04:02:03;;;;;;;19.93;5.80;;;;;;;;;;5048145;28;20041;-61
2023/08/07 04:04:29;;;;;;;31.80;6.17;;;;;;;;;;5047665;28;20049;-61
2023/08/07 04:06:55;;;;;;;18.50;3.60;;;;;;;;;;5047437;28;20041;-61
2023/08/07 04:09:21;;;;;;;27.23;4.80;;;;;;;;;;5048043;28;20080;-61
2023/08/07 04:11:47;;;;;;;18.20;4.30;;;;;;;;;;5055873;28;20043;-61
2023/08/07 04:14:13;;;;;;;10.77;3.87;;;;;;;;;;5067467;28;20458;-62
2023/08/07 04:16:39;;;;;;;17.87;4.33;;;;;;;;;;5071124;28;20055;-61
2023/08/07 04:19:07;;;;;;;14.10;3.90;;;;;;;;;;5071193;28;20063;-62
2023/08/07 04:21:33;;;;;;;17.47;4.47;;;;;;;;;;5071064;28;20096;-62
2023/08/07 04:24:10;;;;;;;12.93;3.80;;;;;;;;;;5070468;28;20109;-62
2023/08/07 04:26:36;;;;;;;9.13;3.00;;;;;;;;;;5071077;28;20051;-62
2023/08/07 04:29:02;;;;;;;16.23;3.57;;;;;;;;;;5071110;28;20053;-62
2023/08/07 04:31:30;;;;;;;14.73;4.07;;;;;;;;;;5070955;28;20044;-62
2023/08/07 04:33:56;;;;;;;12.60;4.23;;;;;;;;;;5071432;28;20086;-62
2023/08/07 04:36:22;;;;;;;19.63;5.60;;;;;;;;;;5069712;28;20488;-62
2023/08/07 04:38:48;;;;;;;13.23;4.27;;;;;;;;;;5070720;28;20044;-62
2023/08/07 04:41:14;;;;;;;20.90;6.37;;;;;;;;;;5062715;28;20033;-62
2023/08/07 04:43:42;;;;;;;11.67;4.10;;;;;;;;;;5050826;28;20043;-61
2023/08/07 04:46:09;;;;;;;16.33;5.30;;;;;;;;;;5050100;28;20049;-61
2023/08/07 04:48:35;;;;;;;17.93;5.73;;;;;;;;;;5050753;28;20055;-62
2023/08/07 04:51:02;;;;;;;18.87;5.80;;;;;;;;;;5050911;28;20057;-61
2023/08/07 04:53:28;;;;;;;19.53;6.30;;;;;;;;;;5050350;28;20044;-61
2023/08/07 04:55:54;;;;;;;17.47;4.93;;;;;;;;;;5050453;28;20095;-62
2023/08/07 04:58:20;;;;;;;18.47;5.37;;;;;;;;;;5050424;28;20049;-61
2023/08/07 05:00:46;;;;;;;23.23;7.30;;;;;;;;;;5050343;28;20052;-61
2023/08/07 05:03:13;;;;;;;25.33;6.67;;;;;;;;;;5050444;28;20048;-61
2023/08/07 05:05:39;;;;;;;21.27;6.87;;;;;;;;;;5050461;28;20052;-61
2023/08/07 05:08:05;;;;;;;22.77;6.43;;;;;;;;;;5050310;28;20565;-62
2023/08/07 05:10:31;;;;;;;19.70;5.73;;;;;;;;;;5049601;28;20525;-61
2023/08/07 05:12:57;;;;;;;23.40;6.30;;;;;;;;;;5050343;28;20037;-61
2023/08/07 05:15:23;;;;;;;23.17;6.43;;;;;;;;;;5050131;28;20080;-61
2023/08/07 05:17:50;;;;;;;24.93;6.93;;;;;;;;;;5049781;28;20495;-62
2023/08/07 05:20:17;;;;;;;16.20;4.83;;;;;;;;;;5049825;28;20049;-61
2023/08/07 05:22:43;;;;;;;27.07;6.07;;;;;;;;;;5049563;28;20555;-62
2023/08/07 05:25:09;;;;;;;18.53;6.50;;;;;;;;;;5049831;28;20048;-62
2023/08/07 05:27:35;;;;;;;24.77;6.80;;;;;;;;;;5049085;28;20153;-65
2023/08/07 05:30:02;;;;;;;21.33;6.40;;;;;;;;;;5058733;28;20384;-65
2023/08/07 05:32:28;;;;;;;26.67;8.03;;;;;;;;;;5069532;28;20051;-65
2023/08/07 05:34:54;;;;;;;20.77;6.10;;;;;;;;;;5056324;28;20048;-65
2023/08/07 05:37:20;;;;;;;20.47;5.73;;;;;;;;;;5050107;28;20510;-62
2023/08/07 05:39:47;;;;;;;18.23;5.27;;;;;;;;;;5050093;28;20049;-62
2023/08/07 05:42:13;;;;;;;21.77;6.50;;;;;;;;;;5049368;28;20041;-62
2023/08/07 05:44:39;;;;;;;14.50;5.27;;;;;;;;;;5049878;28;20057;-61
2023/08/07 05:47:05;;;;;;;21.70;5.93;;;;;;;;;;5049081;28;20114;-62
2023/08/07 05:49:31;;;;;;;19.97;5.10;;;;;;;;;;5054990;28;20068;-62
2023/08/07 05:51:57;;;;;;;27.23;5.87;;;;;;;;;;5053450;28;20526;-62
2023/08/07 05:54:23;;;;;;;21.73;6.33;;;;;;;;;;5049511;28;21431;-62
2023/08/07 05:56:49;;;;;;;32.23;6.97;;;;;;;;;;5049101;28;20084;-61
2023/08/07 05:59:15;;;;;;;30.33;6.80;;;;;;;;;;5048926;28;20056;-61
2023/08/07 06:01:41;;;;;;;26.83;7.67;;;;;;;;;;5049176;28;20049;-62
2023/08/07 06:04:08;;;;;;;25.20;6.73;;;;;;;;;;5050864;28;20388;-62
2023/08/07 06:06:35;;;;;;;24.80;7.00;;;;;;;;;;5054890;28;20128;-62
2023/08/07 06:09:03;;;;;;;24.63;7.13;;;;;;;;;;5048483;28;20077;-61
2023/08/07 06:11:29;;;;;;;23.33;6.20;;;;;;;;;;5048964;28;20088;-62
2023/08/07 06:13:55;;;;;;;21.27;6.33;;;;;;;;;;5048911;28;20045;-62
2023/08/07 06:16:21;;;;;;;18.13;6.37;;;;;;;;;;5048688;28;20052;-62
2023/08/07 06:18:47;;;;;;;19.77;5.23;;;;;;;;;;5054264;28;20444;-62
2023/08/07 06:21:13;;;;;;;22.37;5.83;;;;;;;;;;5067954;28;20044;-61
2023/08/07 06:23:39;;;;;;;19.63;5.83;;;;;;;;;;5067403;28;20055;-62
2023/08/07 06:26:07;;;;;;;20.20;5.20;;;;;;;;;;5068673;28;20076;-62
2023/08/07 06:28:33;;;;;;;20.57;5.20;;;;;;;;;;5068034;28;20123;-64
2023/08/07 06:31:03;;;;;;;16.23;4.63;;;;;;;;;;5066853;28;20122;-64
2023/08/07 06:33:29;;;;;;;25.03;5.27;;;;;;;;;;5067447;28;20097;-62
2023/08/07 06:35:55;;;;;;;25.50;6.10;;;;;;;;;;5068301;28;20041;-62
2023/08/07 06:38:21;;;;;;;25.70;5.90;;;;;;;;;;5062859;28;20498;-62
2023/08/07 06:40:47;;;;;;;23.50;5.07;;;;;;;;;;5054225;28;20347;-64
2023/08/07 06:43:13;;;;;;;19.77;5.30;;;;;;;;;;5049965;28;20107;-63
2023/08/07 06:45:39;;;;;;;19.83;5.13;;;;;;;;;;5059551;28;20053;-63
2023/08/07 06:48:06;;;;;;;22.10;5.50;;;;;;;;;;5058147;28;20402;-63
2023/08/07 06:50:32;;;;;;;26.20;5.33;;;;;;;;;;5067904;28;20053;-64
2023/08/07 06:52:58;;;;;;;24.27;6.00;;;;;;;;;;5068233;28;20418;-64
2023/08/07 06:55:24;;;;;;;23.63;5.93;;;;;;;;;;5068482;28;20489;-64
2023/08/07 06:57:50;;;;;;;23.50;6.10;;;;;;;;;;5067258;28;20048;-63
2023/08/07 07:00:16;;;;;;;22.10;5.70;;;;;;;;;;5068360;28;20048;-62
2023/08/07 07:02:42;;;;;;;29.70;6.30;;;;;;;;;;5068601;28;20109;-63
2023/08/07 07:05:08;;;;;;;17.53;5.03;;;;;;;;;;5068114;28;20048;-63
2023/08/07 07:07:34;;;;;;;18.90;5.57;;;;;;;;;;5067735;28;20143;-64
2023/08/07 07:10:00;;;;;;;22.57;5.57;;;;;;;;;;5051541;28;20131;-63
2023/08/07 07:12:27;;;;;;;17.53;5.43;;;;;;;;;;5057247;28;20102;-65
2023/08/07 07:14:53;;;;;;;28.70;6.73;;;;;;;;;;5066860;28;20052;-63
2023/08/07 07:17:19;;;;;;;19.17;4.13;;;;;;;;;;5064959;28;20055;-63
2023/08/07 07:19:45;;;;;;;13.53;3.70;;;;;;;;;;5056189;28;20053;-63
2023/08/07 07:22:11;;;;;;;16.83;3.83;;;;;;;;;;5059699;28;20044;-62
2023/08/07 07:24:38;;;;;;;14.90;3.50;;;;;;;;;;5054493;28;20243;-62
2023/08/07 07:27:04;;;;;;;14.00;3.80;;;;;;;;;;5053228;28;20041;-63
2023/08/07 07:29:30;;;;;;;16.63;3.70;;;;;;;;;;5056547;28;20078;-62
2023/08/07 07:31:57;;;;;;;12.57;3.50;;;;;;;;;;5049525;28;20174;-62
2023/08/07 07:34:23;;;;;;;10.47;2.83;;;;;;;;;;5048847;28;20040;-62
2023/08/07 07:36:49;;;;;;;12.53;3.20;;;;;;;;;;5061258;28;20063;-62
2023/08/07 07:39:15;;;;;;;11.60;3.20;;;;;;;;;;5067236;28;20422;-64
2023/08/07 07:41:41;;;;;;;13.13;3.37;;;;;;;;;;5067202;28;20053;-64
2023/08/07 07:44:07;;;;;;;18.93;3.73;;;;;;;;;;5065974;28;20041;-64
2023/08/07 07:46:34;;;;;;;12.87;2.73;;;;;;;;;;5067035;28;20086;-64
2023/08/07 07:49:00;;;;;;;11.70;3.00;;;;;;;;;;5065811;28;20577;-64
2023/08/07 07:51:28;;;;;;;14.33;3.47;;;;;;;;;;5066399;28;20071;-64
2023/08/07 07:53:54;;;;;;;11.83;3.23;;;;;;;;;;5063591;28;20044;-64
2023/08/07 07:56:20;;;;;;;11.37;2.90;;;;;;;;;;5067968;28;20051;-63
2023/08/07 07:58:46;;;;;;;13.50;3.20;;;;;;;;;;5062055;28;20449;-63
2023/08/07 08:01:12;;;;;;;8.13;2.67;;;;;;;;;;5064549;28;20046;-63
2023/08/07 08:03:38;;;;;;;12.97;3.30;;;;;;;;;;5051296;28;20080;-64
2023/08/07 08:06:05;;;;;;;6.93;2.77;;;;;;;;;;5055036;28;20045;-64
2023/08/07 08:08:31;;;;;;;11.37;2.57;;;;;;;;;;5055750;28;20487;-64
2023/08/07 08:10:57;;;;;;;12.83;2.97;;;;;;;;;;5057026;28;20495;-64
2023/08/07 08:13:25;;;;;;;11.50;3.73;;;;;;;;;;5057358;28;20048;-64
2023/08/07 08:15:51;;;;;;;14.53;3.60;;;;;;;;;;5058927;28;20621;-64
2023/08/07 08:18:17;;;;;;;13.53;3.27;;;;;;;;;;5053343;28;20041;-64
2023/08/07 08:20:43;;;;;;;13.30;3.60;;;;;;;;;;5050392;28;20128;-64
2023/08/07 08:23:08;;;;;;;11.07;3.33;;;17.20;99.90;;;;;;5052002;28;20088;-63
2023/08/07 08:25:34;;;;;;;10.67;3.03;;;17.00;99.90;;;;;;5050485;28;20080;-64
2023/08/07 08:28:00;;;;;;;10.93;3.10;;;17.70;99.90;;;;;;5051524;28;20050;-64
2023/08/07 08:30:26;;;;;;;10.13;2.80;;;;;;;;;;5049309;28;20120;-63
2023/08/07 08:32:55;;;;;;;12.20;3.43;;;;;;;;;;5051087;28;20059;-63
2023/08/07 08:35:21;;;;;;;11.03;3.07;;;;;;;;;;5050799;28;20048;-64
2023/08/07 08:37:47;;;;;;;13.30;3.30;;;;;;;;;;5051014;28;20044;-64
2023/08/07 08:40:17;;;;;;;13.10;3.60;;;;;;;;;;5050727;28;20049;-64
2023/08/07 08:42:44;;;;;;;10.07;2.80;;;;;;;;;;5050941;28;20041;-64
2023/08/07 08:45:11;;;;;;;12.87;3.37;;;;;;;;;;5050152;28;20515;-65
2023/08/07 08:47:39;;;;;;;13.63;4.63;;;;;;;;;;5051001;28;20052;-64
2023/08/07 08:50:11;;;;;;;13.87;3.70;;;;;;;;;;5050465;28;20094;-64
2023/08/07 08:52:38;;;;;;;22.87;4.97;;;;;;;;;;5050491;28;20430;-64
2023/08/07 08:55:06;;;;;;;17.80;5.30;;;;;;;;;;5050422;28;20396;-65
2023/08/07 08:57:34;;;;;;;13.83;3.23;;;;;;;;;;5049958;28;20049;-64
2023/08/07 09:00:01;;;;;;;12.77;3.67;;;;;;;;;;5050432;28;20491;-64
2023/08/07 09:02:28;;;;;;;19.80;4.40;;;;;;;;;;5047839;28;20041;-64
2023/08/07 09:04:54;;;;;;;13.00;3.97;;;;;;;;;;5049626;28;20064;-64
2023/08/07 09:07:20;;;;;;;16.40;5.00;;;;;;;;;;5050397;28;20045;-64
2023/08/07 09:09:47;;;;;;;16.37;4.43;;;;;;;;;;5050222;28;20047;-63
2023/08/07 09:12:16;;;;;;;17.93;3.70;;;;;;;;;;5050336;28;20049;-64
2023/08/07 09:14:45;;;;;;;13.50;4.17;;;;;;;;;;5049822;28;20088;-64
2023/08/07 09:17:12;;;;;;;17.13;4.80;;;;;;;;;;5050526;28;20059;-64
2023/08/07 09:19:38;;;;;;;13.03;3.67;;;;;;;;;;5050161;28;20060;-63
2023/08/07 09:22:04;;;;;;;18.13;5.53;;;;;;;;;;5049828;28;20102;-64
2023/08/07 09:24:30;;;;;;;14.53;3.97;;;;;;;;;;5049383;28;20045;-63
2023/08/07 09:26:58;;;;;;;12.27;3.27;;;;;;;;;;5049972;28;20052;-64
2023/08/07 09:29:24;;;;;;;13.67;3.37;;;;;;;;;;5049497;28;20495;-64
2023/08/07 09:31:50;;;;;;;12.17;2.87;;;;;;;;;;5049775;28;20044;-64
2023/08/07 09:34:20;;;;;;;9.63;2.63;;;;;;;;;;5050430;28;20894;-64
2023/08/07 09:36:46;;;;;;;15.27;4.30;;;;;;;;;;5050488;28;20135;-63
2023/08/07 09:39:12;;;;;;;9.60;3.23;;;;;;;;;;5050293;28;20120;-64
2023/08/07 09:41:38;;;;;;;10.17;2.97;;;;;;;;;;5050151;28;20127;-64
2023/08/07 09:44:11;;;;;;;10.63;2.47;;;;;;;;;;5050310;28;20095;-63
2023/08/07 09:46:47;;;;;;;11.40;2.92;;;;;;;;;;5049599;28;20495;-64
2023/08/07 09:49:15;;;;;;;8.37;2.20;;;;;;;;;;5049953;28;20049;-64
2023/08/07 09:51:43;;;;;;;11.07;2.70;;;;;;;;;;5049648;28;20052;-64
2023/08/07 09:54:08;;;;;;;14.53;3.07;;;;;;;;;;5049554;28;20041;-64
2023/08/07 09:56:35;;;;;;;9.73;2.53;;;;;;;;;;5049810;28;20052;-64
2023/08/07 09:59:01;;;;;;;9.87;2.30;;;;;;;;;;5049576;28;20041;-64
2023/08/07 10:01:27;;;;;;;12.97;3.10;;;;;;;;;;5049918;28;20115;-64
2023/08/07 10:03:54;;;;;;;15.13;3.17;;;;;;;;;;5048435;28;20491;-64
2023/08/07 10:06:20;;;;;;;8.67;2.60;;;;;;;;;;5051670;28;20049;-64
2023/08/07 10:08:46;;;;;;;9.93;3.00;;;;;;;;;;5049616;28;20045;-64
2023/08/07 10:11:14;;;;;;;13.40;2.77;;;;;;;;;;5050426;28;20049;-64
2023/08/07 10:13:41;;;;;;;7.47;2.50;;;;;;;;;;5070992;28;20514;-64
2023/08/07 10:16:07;;;;;;;9.57;2.63;;;;;;;;;;5053991;28;20502;-65
2023/08/07 10:18:34;;;;;;;10.33;3.40;;;;;;;;;;5049359;28;20496;-62
2023/08/07 10:21:01;;;;;;;14.90;2.57;;;;;;;;;;5048247;28;20128;-62
2023/08/07 10:23:27;;;;;;;11.33;2.70;;;;;;;;;;5050677;28;20084;-62
2023/08/07 10:25:54;;;;;;;9.90;2.67;;;;;;;;;;5052827;28;20048;-62
2023/08/07 10:28:20;;;;;;;8.13;2.40;;;;;;;;;;5051060;28;20060;-62
2023/08/07 10:30:48;;;;;;;5.00;2.17;;;;;;;;;;5052166;28;20036;-62
2023/08/07 10:33:15;;;;;;;12.97;2.50;;;;;;;;;;5054219;28;20392;-62
2023/08/07 10:35:48;;;;;;;7.90;2.50;;;;;;;;;;5062507;28;20040;-62
2023/08/07 10:38:15;;;;;;;8.30;2.20;;;;;;;;;;5062211;28;20044;-65
2023/08/07 10:41:10;;;;;;;10.63;3.10;;;;;;;;;;5049206;28;20189;-65
2023/08/07 10:43:37;;;;;;;8.40;2.40;;;;;;;;;;5035875;28;20072;-65
2023/08/07 10:46:05;;;;;;;9.00;3.20;;;;;;;;;;5048991;28;20131;-65
2023/08/07 10:48:38;;;;;;;11.37;2.67;;;;;;;;;;5049108;28;20053;-65
2023/08/07 10:51:04;;;;;;;6.50;2.42;;;;;;;;;;5048465;28;20055;-64
2023/08/07 10:53:31;;;;;;;8.27;2.60;;;;;;;;;;5048321;28;20052;-64
2023/08/07 10:55:58;;;;;;;11.73;3.07;;;;;;;;;;5060864;28;20040;-64
2023/08/07 10:58:25;;;;;;;13.10;2.50;;;;;;;;;;5068610;28;20430;-64
2023/08/07 11:00:51;;;;;;;5.47;2.00;;;;;;;;;;5068898;28;20037;-65
2023/08/07 11:03:26;;;;;;;12.97;2.73;;;;;;;;;;5068940;28;20041;-64
2023/08/07 11:05:53;;;;;;;11.87;2.40;;;;;;;;;;5068298;28;20054;-64
2023/08/07 11:08:23;;;;;;;10.50;2.07;;;;;;;;;;5068795;28;20079;-62
2023/08/07 11:10:50;;;;;;;9.80;2.00;;;;;;;;;;5068579;28;20078;-63
2023/08/07 11:13:16;;;;;;;10.00;2.00;;;;;;;;;;5068695;28;20522;-63
2023/08/07 11:15:42;;;;;;;13.20;2.40;;;;;;;;;;5068628;28;20040;-63
2023/08/07 11:18:08;;;;;;;6.93;2.17;;;;;;;;;;5068234;28;20036;-63
2023/08/07 11:20:35;;;;;;;11.83;2.33;;;;;;;;;;5068516;28;20914;-63
2023/08/07 11:23:01;;;;;;;6.93;2.10;;;;;;;;;;5068537;28;20052;-62
2023/08/07 11:25:27;;;;;;;7.10;2.43;;;;;;;;;;5069965;28;20130;-63
2023/08/07 11:27:54;;;;;;;4.53;1.97;;;;;;;;;;5062415;28;20045;-62
2023/08/07 11:30:20;;;;;;;9.67;3.20;;;;;;;;;;5052526;28;20041;-63
2023/08/07 11:32:46;;;;;;;8.70;2.37;;;;;;;;;;5052212;28;20526;-62
2023/08/07 11:35:12;;;;;;;8.70;1.93;;;;;;;;;;5051983;28;20502;-64
2023/08/07 11:37:46;;;;;;;8.03;2.23;;;;;;;;;;5052423;28;20491;-62
2023/08/07 11:40:12;;;;;;;7.07;1.80;;;;;;;;;;5052631;28;20041;-62
2023/08/07 11:42:38;;;;;;;9.73;2.10;;;;;;;;;;5052159;28;20159;-62
2023/08/07 11:45:04;;;;;;;6.17;1.87;;;;;;;;;;5052728;28;20133;-62
2023/08/07 11:47:30;;;;;;;8.30;2.10;;;;;;;;;;5051687;28;20095;-62
2023/08/07 11:49:56;;;;;;;4.50;1.47;;;;;;;;;;5052487;28;20037;-62
2023/08/07 11:52:24;;;;;;;6.10;1.87;;;;;;;;;;5051767;28;20080;-60
2023/08/07 11:54:50;;;;;;;5.87;2.00;;;;;;;;;;5052287;28;20041;-60
2023/08/07 11:57:17;;;;;;;8.03;2.27;;;;;;;;;;5052095;28;20045;-60
2023/08/07 11:59:43;;;;;;;5.37;2.40;;;;;;;;;;5050943;28;20053;-59
2023/08/07 12:02:11;;;;;;;4.50;1.77;;;;;;;;;;5051952;28;20064;-59
2023/08/07 12:04:37;;;;;;;7.03;2.27;;;;;;;;;;5051965;28;20407;-59
2023/08/07 12:07:03;;;;;;;5.97;2.20;;;;;;;;;;5051802;28;20495;-59
2023/08/07 12:09:30;;;;;;;6.43;1.67;;;;;;;;;;5052045;28;20045;-60
2023/08/07 12:11:58;;;;;;;8.93;2.57;;;;;;;;;;5051176;28;20040;-59
2023/08/07 12:14:28;;;;;;;7.13;2.17;;;;;;;;;;5052590;28;20120;-59
2023/08/07 12:16:55;;;;;;;5.90;1.67;;;;;;;;;;5051994;28;20088;-59
2023/08/07 12:19:21;;;;;;;8.00;2.00;;;;;;;;;;5051669;28;20044;-60
2023/08/07 12:21:48;;;;;;;6.07;2.20;;;;;;;;;;5051540;28;20554;-60
2023/08/07 12:24:14;;;;;;;4.40;1.50;;;;;;;;;;5050832;28;20083;-59
2023/08/07 12:26:40;;;;;;;6.73;2.10;;;;;;;;;;5051644;28;20049;-59
2023/08/07 12:29:06;;;;;;;5.37;1.90;;;;;;;;;;5051585;28;20045;-59
2023/08/07 12:31:32;;;;;;;5.33;1.80;;;;;;;;;;5051182;28;20592;-59
2023/08/07 12:33:58;;;;;;;6.13;2.30;;;;;;;;;;5051420;28;20049;-60
2023/08/07 12:36:24;;;;;;;8.33;2.10;;;;;;;;;;5051306;28;20044;-59
2023/08/07 12:38:50;;;;;;;7.87;2.33;;;;;;;;;;5050944;28;20181;-59
2023/08/07 12:41:16;;;;;;;6.33;2.20;;;;;;;;;;5050810;28;20049;-60
2023/08/07 12:43:42;;;;;;;7.03;1.80;;;;;;;;;;5051717;28;20049;-59
2023/08/07 12:46:08;;;;;;;9.87;2.20;;;;;;;;;;5051076;28;20076;-59
2023/08/07 12:48:34;;;;;;;5.87;2.03;;;;;;;;;;5051125;28;20491;-59
2023/08/07 12:51:00;;;;;;;5.10;2.20;;;;;;;;;;5051068;28;20060;-60
2023/08/07 12:53:26;;;;;;;7.27;2.00;;;;;;;;;;5050671;28;20098;-59
2023/08/07 12:55:52;;;;;;;5.87;2.40;;;;;;;;;;5050942;28;20064;-59
2023/08/07 12:58:21;;;;;;;8.57;2.20;;;;;;;;;;5050794;28;20048;-59
2023/08/07 13:00:47;;;;;;;9.73;2.50;;;;;;;;;;5050448;28;20525;-59
2023/08/07 13:03:13;;;;;;;6.97;2.43;;;;;;;;;;5050915;28;20049;-62
2023/08/07 13:05:39;;;;;;;12.17;3.00;;;;;;;;;;5050936;28;20080;-62
2023/08/07 13:08:05;;;;;;;21.03;5.03;;;;;;;;;;5050899;28;20461;-62
2023/08/07 13:10:31;;;;;;;12.00;3.37;;;;;;;;;;5050837;28;20063;-63
2023/08/07 13:12:58;;;;;;;8.27;3.00;;;;;;;;;;5050163;28;20041;-63
2023/08/07 13:15:25;;;;;;;9.70;2.70;;;;;;;;;;5050349;28;20049;-63
2023/08/07 13:17:51;;;;;;;5.37;2.60;;;;;;;;;;5050888;28;20198;-63
2023/08/07 13:20:17;;;;;;;6.73;2.80;;;;;;;;;;5050084;28;20044;-63
2023/08/07 13:22:45;;;;;;;8.30;2.37;;;;;;;;;;5049856;28;20114;-63
2023/08/07 13:25:11;;;;;;;9.77;2.63;;;;;;;;;;5049521;28;20411;-62
2023/08/07 13:27:38;;;;;;;6.53;2.47;;;;;;;;;;5049887;28;20083;-62
2023/08/07 13:30:05;;;;;;;10.53;3.50;;;;;;;;;;5049416;28;20661;-62
2023/08/07 13:32:32;;;;;;;8.57;3.00;;;;;;;;;;5049806;28;20052;-62
2023/08/07 13:34:58;;;;;;;8.60;3.20;;;;;;;;;;5050269;28;20049;-62
2023/08/07 13:37:24;;;;;;;12.37;3.60;;;;;;;;;;5049410;28;20498;-62
2023/08/07 13:39:52;;;;;;;9.60;3.83;;;;;;;;;;5049708;28;20041;-62
2023/08/07 13:42:18;;;;;;;8.40;3.43;;;;;;;;;;5049942;28;20061;-62
2023/08/07 13:44:44;;;;;;;6.53;3.60;;;;;;;;;;5049639;28;20060;-62
2023/08/07 13:47:11;;;;;;;13.73;3.67;;;;;;;;;;5048841;28;20507;-62
2023/08/07 13:49:37;;;;;;;12.70;4.23;;;;;;;;;;5048527;28;20053;-62
2023/08/07 13:52:03;;;;;;;8.13;3.43;;;;;;;;;;5049741;28;20679;-62
2023/08/07 13:54:29;;;;;;;9.53;3.33;;;;;;;;;;5049190;28;20049;-62
2023/08/07 13:56:55;;;;;;;6.73;3.27;;;;;;;;;;5048946;28;20052;-62
2023/08/07 13:59:21;;;;;;;10.90;3.30;;;;;;;;;;5048851;28;20048;-62
2023/08/07 14:01:47;;;;;;;14.23;3.67;;;;;;;;;;5049279;28;20514;-62
2023/08/07 14:04:14;;;;;;;13.87;3.80;;;;;;;;;;5048880;28;20045;-63
2023/08/07 14:06:43;;;;;;;9.30;3.30;;;;;;;;;;5048779;28;20055;-65
2023/08/07 14:09:09;;;;;;;7.27;2.80;;;;;;;;;;5049166;28;20136;-63
2023/08/07 14:11:35;;;;;;;7.10;3.23;;;;;;;;;;5048850;28;20737;-64
2023/08/07 14:14:01;;;;;;;7.70;2.50;;;;;;;;;;5048948;28;20131;-63
2023/08/07 14:16:27;;;;;;;12.20;2.53;;;;;;;;;;5048474;28;20041;-63
2023/08/07 14:18:53;;;;;;;9.80;2.70;;;;;;;;;;5048835;28;20044;-63
2023/08/07 14:21:19;;;;;;;8.97;3.10;;;;;;;;;;5048450;28;20044;-63
2023/08/07 14:23:46;;;;;;;9.77;2.50;;;;;;;;;;5048300;28;20124;-63
2023/08/07 14:26:13;;;;;;;9.17;3.10;;;;;;;;;;5048180;28;20418;-62
2023/08/07 14:28:39;;;;;;;9.03;3.23;;;;;;;;;;5048599;28;20133;-62